sensor_id;sensor_type;location;lat;lon;timestamp;temperature;humidity
26505;DHT22;19493;48.042;7.584;2023-09-30T00:01:09;17.10;99.90
26505;DHT22;19493;48.042;7.584;2023-09-30T00:03:54;17.10;99.90
26505;DHT22;19493;48.042;7.584;2023-09-30T00:06:38;17.10;99.90
26505;DHT22;19493;48.042;7.584;2023-09-30T00:09:22;17.10;99.90
26505;DHT22;19493;48.042;7.584;2023-09-30T00:12:06;17.10;99.90
26505;DHT22;19493;48.042;7.584;2023-09-30T00:14:51;17.00;99.90
26505;DHT22;19493;48.042;7.584;2023-09-30T00:17:35;17.00;99.90
26505;DHT22;19493;48.042;7.584;2023-09-30T00:20:19;17.00;99.90
26505;DHT22;19493;48.042;7.584;2023-09-30T00:23:03;16.90;99.90
26505;DHT22;19493;48.042;7.584;2023-09-30T00:25:50;16.90;99.90
26505;DHT22;19493;48.042;7.584;2023-09-30T00:28:34;16.80;99.90
26505;DHT22;19493;48.042;7.584;2023-09-30T00:31:18;16.80;99.90
26505;DHT22;19493;48.042;7.584;2023-09-30T00:34:02;16.70;99.90
26505;DHT22;19493;48.042;7.584;2023-09-30T00:36:46;16.70;99.90
26505;DHT22;19493;48.042;7.584;2023-09-30T00:39:32;16.70;99.90
26505;DHT22;19493;48.042;7.584;2023-09-30T00:42:17;16.70;99.90
26505;DHT22;19493;48.042;7.584;2023-09-30T00:45:01;16.70;99.90
26505;DHT22;19493;48.042;7.584;2023-09-30T00:47:45;16.70;99.90
26505;DHT22;19493;48.042;7.584;2023-09-30T00:50:29;16.70;99.90
26505;DHT22;19493;48.042;7.584;2023-09-30T00:53:13;16.60;99.90
26505;DHT22;19493;48.042;7.584;2023-09-30T00:55:58;16.60;99.90
26505;DHT22;19493;48.042;7.584;2023-09-30T00:58:43;16.60;99.90
26505;DHT22;19493;48.042;7.584;2023-09-30T01:01:29;16.50;99.90
26505;DHT22;19493;48.042;7.584;2023-09-30T01:04:14;16.50;99.90
26505;DHT22;19493;48.042;7.584;2023-09-30T01:06:59;16.50;99.90
26505;DHT22;19493;48.042;7.584;2023-09-30T01:09:43;16.40;99.90
26505;DHT22;19493;48.042;7.584;2023-09-30T01:12:27;16.40;99.90
26505;DHT22;19493;48.042;7.584;2023-09-30T01:15:11;16.40;99.90
26505;DHT22;19493;48.042;7.584;2023-09-30T01:17:55;16.40;99.90
26505;DHT22;19493;48.042;7.584;2023-09-30T01:20:39;16.40;99.90
26505;DHT22;19493;48.042;7.584;2023-09-30T01:23:24;16.40;99.90
26505;DHT22;19493;48.042;7.584;2023-09-30T01:26:11;16.30;99.90
26505;DHT22;19493;48.042;7.584;2023-09-30T01:28:59;16.20;99.90
26505;DHT22;19493;48.042;7.584;2023-09-30T01:31:43;16.10;99.90
26505;DHT22;19493;48.042;7.584;2023-09-30T01:34:27;16.00;99.90
26505;DHT22;19493;48.042;7.584;2023-09-30T01:37:11;16.00;99.90
26505;DHT22;19493;48.042;7.584;2023-09-30T01:39:55;16.00;99.90
26505;DHT22;19493;48.042;7.584;2023-09-30T01:42:39;15.90;99.90
26505;DHT22;19493;48.042;7.584;2023-09-30T01:45:23;15.90;99.90
26505;DHT22;19493;48.042;7.584;2023-09-30T01:48:08;15.90;99.90
26505;DHT22;19493;48.042;7.584;2023-09-30T01:50:56;15.80;99.90
26505;DHT22;19493;48.042;7.584;2023-09-30T01:53:40;15.80;99.90
26505;DHT22;19493;48.042;7.584;2023-09-30T01:56:25;15.80;99.90
26505;DHT22;19493;48.042;7.584;2023-09-30T01:59:09;15.70;99.90
26505;DHT22;19493;48.042;7.584;2023-09-30T02:01:53;15.70;99.90
26505;DHT22;19493;48.042;7.584;2023-09-30T02:04:37;15.60;99.90
26505;DHT22;19493;48.042;7.584;2023-09-30T02:07:21;15.50;99.90
26505;DHT22;19493;48.042;7.584;2023-09-30T02:10:06;15.50;99.90
26505;DHT22;19493;48.042;7.584;2023-09-30T02:12:51;15.50;99.90
26505;DHT22;19493;48.042;7.584;2023-09-30T02:15:35;15.50;99.90
26505;DHT22;19493;48.042;7.584;2023-09-30T02:18:20;15.60;99.90
26505;DHT22;19493;48.042;7.584;2023-09-30T02:21:04;15.60;99.90
26505;DHT22;19493;48.042;7.584;2023-09-30T02:23:48;15.70;99.90
26505;DHT22;19493;48.042;7.584;2023-09-30T02:26:32;15.70;99.90
26505;DHT22;19493;48.042;7.584;2023-09-30T02:29:16;15.70;99.90
26505;DHT22;19493;48.042;7.584;2023-09-30T02:32:00;15.60;99.90
26505;DHT22;19493;48.042;7.584;2023-09-30T02:34:44;15.60;99.90
26505;DHT22;19493;48.042;7.584;2023-09-30T02:37:28;15.50;99.90
26505;DHT22;19493;48.042;7.584;2023-09-30T02:40:15;15.50;99.90
26505;DHT22;19493;48.042;7.584;2023-09-30T02:43:01;15.40;99.90
26505;DHT22;19493;48.042;7.584;2023-09-30T02:45:45;15.40;99.90
26505;DHT22;19493;48.042;7.584;2023-09-30T02:48:29;15.40;99.90
26505;DHT22;19493;48.042;7.584;2023-09-30T02:51:13;15.40;99.90
26505;DHT22;19493;48.042;7.584;2023-09-30T02:53:58;15.30;99.90
26505;DHT22;19493;48.042;7.584;2023-09-30T02:56:42;15.20;99.90
26505;DHT22;19493;48.042;7.584;2023-09-30T02:59:26;15.10;99.90
26505;DHT22;19493;48.042;7.584;2023-09-30T03:02:11;15.10;99.90
26505;DHT22;19493;48.042;7.584;2023-09-30T03:04:55;15.00;99.90
26505;DHT22;19493;48.042;7.584;2023-09-30T03:07:42;15.00;99.90
26505;DHT22;19493;48.042;7.584;2023-09-30T03:10:26;14.90;99.90
26505;DHT22;19493;48.042;7.584;2023-09-30T03:13:11;14.90;99.90
26505;DHT22;19493;48.042;7.584;2023-09-30T03:15:55;14.90;99.90
26505;DHT22;19493;48.042;7.584;2023-09-30T03:18:41;14.90;99.90
26505;DHT22;19493;48.042;7.584;2023-09-30T03:21:28;14.90;99.90
26505;DHT22;19493;48.042;7.584;2023-09-30T03:24:12;15.00;99.90
26505;DHT22;19493;48.042;7.584;2023-09-30T03:26:56;15.00;99.90
26505;DHT22;19493;48.042;7.584;2023-09-30T03:29:42;15.00;99.90
26505;DHT22;19493;48.042;7.584;2023-09-30T03:32:26;15.00;99.90
26505;DHT22;19493;48.042;7.584;2023-09-30T03:35:10;14.90;99.90
26505;DHT22;19493;48.042;7.584;2023-09-30T03:37:54;14.90;99.90
26505;DHT22;19493;48.042;7.584;2023-09-30T03:40:42;14.70;99.90
26505;DHT22;19493;48.042;7.584;2023-09-30T03:43:31;14.60;99.90
26505;DHT22;19493;48.042;7.584;2023-09-30T03:46:18;14.50;99.90
26505;DHT22;19493;48.042;7.584;2023-09-30T03:49:02;14.40;99.90
26505;DHT22;19493;48.042;7.584;2023-09-30T03:51:47;14.30;99.90
26505;DHT22;19493;48.042;7.584;2023-09-30T03:54:31;14.20;99.90
26505;DHT22;19493;48.042;7.584;2023-09-30T03:57:16;14.10;99.90
26505;DHT22;19493;48.042;7.584;2023-09-30T04:00:00;14.00;99.90
26505;DHT22;19493;48.042;7.584;2023-09-30T04:02:45;13.90;99.90
26505;DHT22;19493;48.042;7.584;2023-09-30T04:05:33;13.90;99.90
26505;DHT22;19493;48.042;7.584;2023-09-30T04:08:20;13.90;99.90
26505;DHT22;19493;48.042;7.584;2023-09-30T04:11:06;13.80;99.90
26505;DHT22;19493;48.042;7.584;2023-09-30T04:13:50;13.80;99.90
26505;DHT22;19493;48.042;7.584;2023-09-30T04:16:35;13.80;99.90
26505;DHT22;19493;48.042;7.584;2023-09-30T04:19:19;13.80;99.90
26505;DHT22;19493;48.042;7.584;2023-09-30T04:22:04;13.80;99.90
26505;DHT22;19493;48.042;7.584;2023-09-30T04:24:48;13.80;99.90
26505;DHT22;19493;48.042;7.584;2023-09-30T04:27:36;13.80;99.90
26505;DHT22;19493;48.042;7.584;2023-09-30T04:30:20;13.80;99.90
26505;DHT22;19493;48.042;7.584;2023-09-30T04:33:06;13.90;99.90
26505;DHT22;19493;48.042;7.584;2023-09-30T04:35:52;13.90;99.90
26505;DHT22;19493;48.042;7.584;2023-09-30T04:38:38;14.00;99.90
26505;DHT22;19493;48.042;7.584;2023-09-30T04:41:22;14.10;99.90
26505;DHT22;19493;48.042;7.584;2023-09-30T04:44:06;14.20;99.90
26505;DHT22;19493;48.042;7.584;2023-09-30T04:46:50;14.20;99.90
26505;DHT22;19493;48.042;7.584;2023-09-30T04:49:35;14.30;99.90
26505;DHT22;19493;48.042;7.584;2023-09-30T04:52:19;14.30;99.90
26505;DHT22;19493;48.042;7.584;2023-09-30T04:55:05;14.30;99.90
26505;DHT22;19493;48.042;7.584;2023-09-30T04:57:49;14.30;99.90
26505;DHT22;19493;48.042;7.584;2023-09-30T05:00:34;14.40;99.90
26505;DHT22;19493;48.042;7.584;2023-09-30T05:03:18;14.40;99.90
26505;DHT22;19493;48.042;7.584;2023-09-30T05:06:03;14.50;99.90
26505;DHT22;19493;48.042;7.584;2023-09-30T05:08:47;14.60;99.90
26505;DHT22;19493;48.042;7.584;2023-09-30T05:11:32;14.60;99.90
26505;DHT22;19493;48.042;7.584;2023-09-30T05:14:16;14.70;99.90
26505;DHT22;19493;48.042;7.584;2023-09-30T05:17:00;14.70;99.90
26505;DHT22;19493;48.042;7.584;2023-09-30T05:19:45;14.70;99.90
26505;DHT22;19493;48.042;7.584;2023-09-30T05:22:29;14.60;99.90
26505;DHT22;19493;48.042;7.584;2023-09-30T05:25:14;14.60;99.90
26505;DHT22;19493;48.042;7.584;2023-09-30T05:28:03;14.50;99.90
26505;DHT22;19493;48.042;7.584;2023-09-30T05:30:47;14.40;99.90
26505;DHT22;19493;48.042;7.584;2023-09-30T05:33:31;14.20;99.90
26505;DHT22;19493;48.042;7.584;2023-09-30T05:36:16;14.10;99.90
26505;DHT22;19493;48.042;7.584;2023-09-30T05:39:00;14.10;99.90
26505;DHT22;19493;48.042;7.584;2023-09-30T05:41:44;14.10;99.90
26505;DHT22;19493;48.042;7.584;2023-09-30T05:44:29;14.00;99.90
26505;DHT22;19493;48.042;7.584;2023-09-30T05:47:13;14.00;99.90
26505;DHT22;19493;48.042;7.584;2023-09-30T05:49:57;13.90;99.90
26505;DHT22;19493;48.042;7.584;2023-09-30T05:52:42;14.00;99.90
26505;DHT22;19493;48.042;7.584;2023-09-30T05:55:26;14.10;99.90
26505;DHT22;19493;48.042;7.584;2023-09-30T05:58:15;14.20;99.90
26505;DHT22;19493;48.042;7.584;2023-09-30T06:01:02;14.40;99.90
26505;DHT22;19493;48.042;7.584;2023-09-30T06:03:46;14.50;99.90
26505;DHT22;19493;48.042;7.584;2023-09-30T06:06:33;14.60;99.90
26505;DHT22;19493;48.042;7.584;2023-09-30T06:09:17;14.70;99.90
26505;DHT22;19493;48.042;7.584;2023-09-30T06:12:01;14.70;99.90
26505;DHT22;19493;48.042;7.584;2023-09-30T06:14:47;14.70;99.90
26505;DHT22;19493;48.042;7.584;2023-09-30T06:17:32;14.70;99.90
26505;DHT22;19493;48.042;7.584;2023-09-30T06:20:18;14.80;99.90
26505;DHT22;19493;48.042;7.584;2023-09-30T06:23:03;14.80;99.90
26505;DHT22;19493;48.042;7.584;2023-09-30T06:25:47;14.90;99.90
26505;DHT22;19493;48.042;7.584;2023-09-30T06:28:31;15.20;99.90
26505;DHT22;19493;48.042;7.584;2023-09-30T06:31:18;15.40;99.90
26505;DHT22;19493;48.042;7.584;2023-09-30T06:34:02;15.50;99.90
26505;DHT22;19493;48.042;7.584;2023-09-30T06:36:47;15.60;99.90
26505;DHT22;19493;48.042;7.584;2023-09-30T06:39:31;15.70;99.90
26505;DHT22;19493;48.042;7.584;2023-09-30T06:42:15;15.70;99.90
26505;DHT22;19493;48.042;7.584;2023-09-30T06:45:01;15.80;99.90
26505;DHT22;19493;48.042;7.584;2023-09-30T06:47:49;15.80;99.90
26505;DHT22;19493;48.042;7.584;2023-09-30T06:50:33;15.90;99.90
26505;DHT22;19493;48.042;7.584;2023-09-30T06:53:18;16.00;99.90
26505;DHT22;19493;48.042;7.584;2023-09-30T06:56:06;16.20;99.90
26505;DHT22;19493;48.042;7.584;2023-09-30T06:58:50;16.40;99.90
26505;DHT22;19493;48.042;7.584;2023-09-30T07:01:34;16.70;99.90
26505;DHT22;19493;48.042;7.584;2023-09-30T07:04:18;16.80;99.90
26505;DHT22;19493;48.042;7.584;2023-09-30T07:07:02;16.90;99.90
26505;DHT22;19493;48.042;7.584;2023-09-30T07:09:46;16.90;99.90
26505;DHT22;19493;48.042;7.584;2023-09-30T07:12:31;16.90;99.90
26505;DHT22;19493;48.042;7.584;2023-09-30T07:15:15;16.90;99.90
26505;DHT22;19493;48.042;7.584;2023-09-30T07:18:00;17.00;99.90
26505;DHT22;19493;48.042;7.584;2023-09-30T07:20:44;17.10;99.90
26505;DHT22;19493;48.042;7.584;2023-09-30T07:23:30;17.30;99.90
26505;DHT22;19493;48.042;7.584;2023-09-30T07:26:14;17.40;99.90
26505;DHT22;19493;48.042;7.584;2023-09-30T07:28:58;17.60;99.90
26505;DHT22;19493;48.042;7.584;2023-09-30T07:31:42;17.70;99.90
26505;DHT22;19493;48.042;7.584;2023-09-30T07:34:27;17.90;99.90
26505;DHT22;19493;48.042;7.584;2023-09-30T07:37:11;18.00;99.90
26505;DHT22;19493;48.042;7.584;2023-09-30T07:39:55;18.30;99.90
26505;DHT22;19493;48.042;7.584;2023-09-30T07:42:39;18.30;99.90
26505;DHT22;19493;48.042;7.584;2023-09-30T07:45:23;18.30;99.90
26505;DHT22;19493;48.042;7.584;2023-09-30T07:48:07;18.20;99.90
26505;DHT22;19493;48.042;7.584;2023-09-30T07:50:53;18.30;99.90
26505;DHT22;19493;48.042;7.584;2023-09-30T07:53:38;18.40;99.90
26505;DHT22;19493;48.042;7.584;2023-09-30T07:56:24;18.50;99.90
26505;DHT22;19493;48.042;7.584;2023-09-30T07:59:09;18.60;99.90
26505;DHT22;19493;48.042;7.584;2023-09-30T08:01:54;18.80;99.90
26505;DHT22;19493;48.042;7.584;2023-09-30T08:04:38;19.00;99.90
26505;DHT22;19493;48.042;7.584;2023-09-30T08:07:22;19.10;99.90
26505;DHT22;19493;48.042;7.584;2023-09-30T08:10:07;19.20;99.90
26505;DHT22;19493;48.042;7.584;2023-09-30T08:12:56;19.40;99.90
26505;DHT22;19493;48.042;7.584;2023-09-30T08:15:42;19.50;99.90
26505;DHT22;19493;48.042;7.584;2023-09-30T08:18:26;19.60;99.90
26505;DHT22;19493;48.042;7.584;2023-09-30T08:21:10;19.80;99.90
26505;DHT22;19493;48.042;7.584;2023-09-30T08:23:58;20.00;99.90
26505;DHT22;19493;48.042;7.584;2023-09-30T08:26:42;20.30;99.90
26505;DHT22;19493;48.042;7.584;2023-09-30T08:29:26;20.20;99.90
26505;DHT22;19493;48.042;7.584;2023-09-30T08:32:10;20.40;99.90
26505;DHT22;19493;48.042;7.584;2023-09-30T08:34:54;20.80;99.90
26505;DHT22;19493;48.042;7.584;2023-09-30T08:37:38;21.00;99.90
26505;DHT22;19493;48.042;7.584;2023-09-30T08:40:22;20.80;99.90
26505;DHT22;19493;48.042;7.584;2023-09-30T08:43:11;20.70;99.90
26505;DHT22;19493;48.042;7.584;2023-09-30T08:45:56;20.60;99.90
26505;DHT22;19493;48.042;7.584;2023-09-30T08:48:40;20.80;99.90
26505;DHT22;19493;48.042;7.584;2023-09-30T08:51:24;20.90;99.90
26505;DHT22;19493;48.042;7.584;2023-09-30T08:54:09;21.30;99.90
26505;DHT22;19493;48.042;7.584;2023-09-30T08:56:53;21.90;99.90
26505;DHT22;19493;48.042;7.584;2023-09-30T08:59:38;22.90;99.90
26505;DHT22;19493;48.042;7.584;2023-09-30T09:02:25;23.40;99.90
26505;DHT22;19493;48.042;7.584;2023-09-30T09:07:53;24.70;99.90
26505;DHT22;19493;48.042;7.584;2023-09-30T09:10:57;25.20;99.90
26505;DHT22;19493;48.042;7.584;2023-09-30T09:13:48;25.20;99.90
26505;DHT22;19493;48.042;7.584;2023-09-30T09:19:18;27.40;99.90
26505;DHT22;19493;48.042;7.584;2023-09-30T09:22:03;27.70;99.90
26505;DHT22;19493;48.042;7.584;2023-09-30T09:24:51;28.00;99.90
26505;DHT22;19493;48.042;7.584;2023-09-30T09:30:25;28.70;99.90
26505;DHT22;19493;48.042;7.584;2023-09-30T09:33:10;29.30;99.60
26505;DHT22;19493;48.042;7.584;2023-09-30T09:35:54;29.80;96.90
26505;DHT22;19493;48.042;7.584;2023-09-30T09:38:45;30.40;95.50
26505;DHT22;19493;48.042;7.584;2023-09-30T09:41:29;30.90;92.50
26505;DHT22;19493;48.042;7.584;2023-09-30T09:44:13;31.30;90.40
26505;DHT22;19493;48.042;7.584;2023-09-30T09:46:58;31.60;87.70
26505;DHT22;19493;48.042;7.584;2023-09-30T09:49:42;31.80;80.80
26505;DHT22;19493;48.042;7.584;2023-09-30T09:52:27;31.60;79.60
26505;DHT22;19493;48.042;7.584;2023-09-30T09:55:12;31.40;80.00
26505;DHT22;19493;48.042;7.584;2023-09-30T09:57:58;32.10;78.30
26505;DHT22;19493;48.042;7.584;2023-09-30T10:00:43;32.70;76.60
26505;DHT22;19493;48.042;7.584;2023-09-30T10:03:29;32.20;74.20
26505;DHT22;19493;48.042;7.584;2023-09-30T10:06:14;30.40;76.50
26505;DHT22;19493;48.042;7.584;2023-09-30T10:08:59;29.40;79.30
26505;DHT22;19493;48.042;7.584;2023-09-30T10:11:44;30.20;82.50
26505;DHT22;19493;48.042;7.584;2023-09-30T10:14:33;31.20;78.70
26505;DHT22;19493;48.042;7.584;2023-09-30T10:17:17;32.40;75.60
26505;DHT22;19493;48.042;7.584;2023-09-30T10:20:06;33.40;72.30
26505;DHT22;19493;48.042;7.584;2023-09-30T10:29:09;34.10;66.00
26505;DHT22;19493;48.042;7.584;2023-09-30T10:31:53;34.20;63.50
26505;DHT22;19493;48.042;7.584;2023-09-30T10:34:38;34.50;62.40
26505;DHT22;19493;48.042;7.584;2023-09-30T10:37:23;35.10;60.10
26505;DHT22;19493;48.042;7.584;2023-09-30T10:40:08;35.30;58.60
26505;DHT22;19493;48.042;7.584;2023-09-30T10:42:53;35.60;58.80
26505;DHT22;19493;48.042;7.584;2023-09-30T10:45:43;35.60;57.80
26505;DHT22;19493;48.042;7.584;2023-09-30T10:51:16;36.50;53.40
26505;DHT22;19493;48.042;7.584;2023-09-30T10:54:02;36.60;53.30
26505;DHT22;19493;48.042;7.584;2023-09-30T10:56:47;37.10;52.20
26505;DHT22;19493;48.042;7.584;2023-09-30T10:59:31;37.40;51.40
26505;DHT22;19493;48.042;7.584;2023-09-30T11:05:10;37.40;68.60
26505;DHT22;19493;48.042;7.584;2023-09-30T11:07:57;37.80;73.20
26505;DHT22;19493;48.042;7.584;2023-09-30T11:10:51;37.90;62.90
26505;DHT22;19493;48.042;7.584;2023-09-30T11:13:37;38.10;71.70
26505;DHT22;19493;48.042;7.584;2023-09-30T11:16:23;38.30;73.30
26505;DHT22;19493;48.042;7.584;2023-09-30T11:19:07;36.20;80.70
26505;DHT22;19493;48.042;7.584;2023-09-30T11:21:54;33.70;55.20
26505;DHT22;19493;48.042;7.584;2023-09-30T11:24:42;34.40;56.20
26505;DHT22;19493;48.042;7.584;2023-09-30T11:27:26;36.10;55.30
26505;DHT22;19493;48.042;7.584;2023-09-30T14:07:49;33.20;82.00
26505;DHT22;19493;48.042;7.584;2023-09-30T14:10:35;33.10;42.30
26505;DHT22;19493;48.042;7.584;2023-09-30T14:13:20;32.10;43.00
26505;DHT22;19493;48.042;7.584;2023-09-30T14:16:04;32.40;44.00
26505;DHT22;19493;48.042;7.584;2023-09-30T14:18:49;32.80;43.60
26505;DHT22;19493;48.042;7.584;2023-09-30T14:21:36;32.70;43.90
26505;DHT22;19493;48.042;7.584;2023-09-30T14:24:20;32.40;43.40
26505;DHT22;19493;48.042;7.584;2023-09-30T14:27:04;31.90;42.60
26505;DHT22;19493;48.042;7.584;2023-09-30T14:29:49;30.80;44.50
26505;DHT22;19493;48.042;7.584;2023-09-30T14:32:33;30.60;45.60
26505;DHT22;19493;48.042;7.584;2023-09-30T14:35:17;31.30;44.70
26505;DHT22;19493;48.042;7.584;2023-09-30T14:38:04;31.50;44.10
26505;DHT22;19493;48.042;7.584;2023-09-30T14:40:48;30.90;44.50
26505;DHT22;19493;48.042;7.584;2023-09-30T14:43:34;31.40;45.00
26505;DHT22;19493;48.042;7.584;2023-09-30T14:46:18;31.00;44.70
26505;DHT22;19493;48.042;7.584;2023-09-30T14:49:02;31.00;44.50
26505;DHT22;19493;48.042;7.584;2023-09-30T14:51:46;30.50;45.40
26505;DHT22;19493;48.042;7.584;2023-09-30T14:54:32;30.20;45.80
26505;DHT22;19493;48.042;7.584;2023-09-30T14:57:16;29.80;46.10
26505;DHT22;19493;48.042;7.584;2023-09-30T15:00:04;29.10;47.00
26505;DHT22;19493;48.042;7.584;2023-09-30T15:02:50;28.40;49.20
26505;DHT22;19493;48.042;7.584;2023-09-30T15:05:34;27.80;50.20
26505;DHT22;19493;48.042;7.584;2023-09-30T15:08:19;27.50;51.50
26505;DHT22;19493;48.042;7.584;2023-09-30T15:11:04;27.60;51.20
26505;DHT22;19493;48.042;7.584;2023-09-30T15:13:48;27.90;51.30
26505;DHT22;19493;48.042;7.584;2023-09-30T15:16:32;28.00;50.50
26505;DHT22;19493;48.042;7.584;2023-09-30T15:19:17;27.40;51.20
26505;DHT22;19493;48.042;7.584;2023-09-30T15:22:02;26.50;52.50
26505;DHT22;19493;48.042;7.584;2023-09-30T15:24:46;25.60;53.40
26505;DHT22;19493;48.042;7.584;2023-09-30T15:27:30;25.20;55.80
26505;DHT22;19493;48.042;7.584;2023-09-30T15:30:15;24.70;56.30
26505;DHT22;19493;48.042;7.584;2023-09-30T15:33:00;24.30;57.50
26505;DHT22;19493;48.042;7.584;2023-09-30T15:35:46;24.00;58.00
26505;DHT22;19493;48.042;7.584;2023-09-30T15:38:31;23.70;58.60
26505;DHT22;19493;48.042;7.584;2023-09-30T15:41:15;23.50;59.50
26505;DHT22;19493;48.042;7.584;2023-09-30T15:43:59;23.30;60.10
26505;DHT22;19493;48.042;7.584;2023-09-30T15:46:44;23.20;61.40
26505;DHT22;19493;48.042;7.584;2023-09-30T15:49:28;23.00;61.60
26505;DHT22;19493;48.042;7.584;2023-09-30T15:52:12;22.90;62.00
26505;DHT22;19493;48.042;7.584;2023-09-30T15:54:57;22.80;62.90
26505;DHT22;19493;48.042;7.584;2023-09-30T15:57:41;22.50;63.70
26505;DHT22;19493;48.042;7.584;2023-09-30T16:00:26;22.30;64.60
26505;DHT22;19493;48.042;7.584;2023-09-30T16:03:11;22.10;65.50
26505;DHT22;19493;48.042;7.584;2023-09-30T16:05:56;21.90;66.80
26505;DHT22;19493;48.042;7.584;2023-09-30T16:08:40;21.80;67.30
26505;DHT22;19493;48.042;7.584;2023-09-30T16:11:25;21.60;68.80
26505;DHT22;19493;48.042;7.584;2023-09-30T16:14:10;21.40;70.60
26505;DHT22;19493;48.042;7.584;2023-09-30T16:16:54;21.20;72.30
26505;DHT22;19493;48.042;7.584;2023-09-30T16:19:44;20.90;74.00
26505;DHT22;19493;48.042;7.584;2023-09-30T16:22:28;20.80;76.20
26505;DHT22;19493;48.042;7.584;2023-09-30T16:25:12;20.60;78.00
26505;DHT22;19493;48.042;7.584;2023-09-30T16:27:56;20.50;80.50
26505;DHT22;19493;48.042;7.584;2023-09-30T16:30:41;20.40;83.80
26505;DHT22;19493;48.042;7.584;2023-09-30T16:33:25;20.40;86.60
26505;DHT22;19493;48.042;7.584;2023-09-30T16:36:09;20.20;90.70
26505;DHT22;19493;48.042;7.584;2023-09-30T16:38:54;20.10;93.30
26505;DHT22;19493;48.042;7.584;2023-09-30T16:41:38;20.00;96.00
26505;DHT22;19493;48.042;7.584;2023-09-30T16:44:22;19.90;99.00
26505;DHT22;19493;48.042;7.584;2023-09-30T16:47:06;19.80;99.90
26505;DHT22;19493;48.042;7.584;2023-09-30T16:49:51;19.60;99.90
26505;DHT22;19493;48.042;7.584;2023-09-30T16:52:35;19.50;99.90
26505;DHT22;19493;48.042;7.584;2023-09-30T16:55:19;19.30;99.90
26505;DHT22;19493;48.042;7.584;2023-09-30T16:58:04;19.10;99.90
26505;DHT22;19493;48.042;7.584;2023-09-30T17:00:49;18.90;99.90
26505;DHT22;19493;48.042;7.584;2023-09-30T17:03:33;18.80;99.90
26505;DHT22;19493;48.042;7.584;2023-09-30T17:06:17;18.60;99.90
26505;DHT22;19493;48.042;7.584;2023-09-30T17:09:01;18.50;99.90
26505;DHT22;19493;48.042;7.584;2023-09-30T17:11:45;18.30;99.90
26505;DHT22;19493;48.042;7.584;2023-09-30T17:14:29;18.10;99.90
26505;DHT22;19493;48.042;7.584;2023-09-30T17:17:15;18.00;99.90
26505;DHT22;19493;48.042;7.584;2023-09-30T17:20:00;17.90;99.90
26505;DHT22;19493;48.042;7.584;2023-09-30T17:22:46;17.80;99.90
26505;DHT22;19493;48.042;7.584;2023-09-30T17:25:31;17.60;99.90
26505;DHT22;19493;48.042;7.584;2023-09-30T17:28:15;17.50;99.90
26505;DHT22;19493;48.042;7.584;2023-09-30T17:31:03;17.40;99.90
26505;DHT22;19493;48.042;7.584;2023-09-30T17:33:48;17.30;99.90
26505;DHT22;19493;48.042;7.584;2023-09-30T17:36:33;17.10;99.90
26505;DHT22;19493;48.042;7.584;2023-09-30T17:39:17;17.00;99.90
26505;DHT22;19493;48.042;7.584;2023-09-30T17:42:01;16.90;99.90
26505;DHT22;19493;48.042;7.584;2023-09-30T17:44:45;16.80;99.90
26505;DHT22;19493;48.042;7.584;2023-09-30T17:47:29;16.80;99.90
26505;DHT22;19493;48.042;7.584;2023-09-30T17:50:13;16.70;99.90
26505;DHT22;19493;48.042;7.584;2023-09-30T17:52:57;16.70;99.90
26505;DHT22;19493;48.042;7.584;2023-09-30T17:55:41;16.60;99.90
26505;DHT22;19493;48.042;7.584;2023-09-30T17:58:25;16.50;99.90
26505;DHT22;19493;48.042;7.584;2023-09-30T18:01:10;16.40;99.90
26505;DHT22;19493;48.042;7.584;2023-09-30T18:03:54;16.30;99.90
26505;DHT22;19493;48.042;7.584;2023-09-30T18:06:38;16.30;99.90
26505;DHT22;19493;48.042;7.584;2023-09-30T18:09:22;16.20;99.90
26505;DHT22;19493;48.042;7.584;2023-09-30T18:12:07;16.10;99.90
26505;DHT22;19493;48.042;7.584;2023-09-30T18:14:51;16.00;99.90
26505;DHT22;19493;48.042;7.584;2023-09-30T18:17:35;16.00;99.90
26505;DHT22;19493;48.042;7.584;2023-09-30T18:20:20;16.00;99.90
26505;DHT22;19493;48.042;7.584;2023-09-30T18:23:04;15.90;99.90
26505;DHT22;19493;48.042;7.584;2023-09-30T18:25:48;15.80;99.90
26505;DHT22;19493;48.042;7.584;2023-09-30T18:28:33;15.80;99.90
26505;DHT22;19493;48.042;7.584;2023-09-30T18:31:18;15.80;99.90
26505;DHT22;19493;48.042;7.584;2023-09-30T18:34:03;15.70;99.90
26505;DHT22;19493;48.042;7.584;2023-09-30T18:36:49;15.60;99.90
26505;DHT22;19493;48.042;7.584;2023-09-30T18:39:33;15.50;99.90
26505;DHT22;19493;48.042;7.584;2023-09-30T18:42:17;15.40;99.90
26505;DHT22;19493;48.042;7.584;2023-09-30T18:45:01;15.40;99.90
26505;DHT22;19493;48.042;7.584;2023-09-30T18:47:47;15.40;99.90
26505;DHT22;19493;48.042;7.584;2023-09-30T18:53:25;15.20;99.90
26505;DHT22;19493;48.042;7.584;2023-09-30T18:56:09;15.20;99.90
26505;DHT22;19493;48.042;7.584;2023-09-30T18:58:55;15.20;99.90
26505;DHT22;19493;48.042;7.584;2023-09-30T19:01:39;15.20;99.90
26505;DHT22;19493;48.042;7.584;2023-09-30T19:04:23;15.10;99.90
26505;DHT22;19493;48.042;7.584;2023-09-30T19:07:07;15.00;99.90
26505;DHT22;19493;48.042;7.584;2023-09-30T19:09:51;15.00;99.90
26505;DHT22;19493;48.042;7.584;2023-09-30T19:12:36;15.00;99.90
26505;DHT22;19493;48.042;7.584;2023-09-30T19:15:20;15.00;99.90
26505;DHT22;19493;48.042;7.584;2023-09-30T19:18:04;14.90;99.90
26505;DHT22;19493;48.042;7.584;2023-09-30T19:20:49;14.90;99.90
26505;DHT22;19493;48.042;7.584;2023-09-30T19:23:34;14.80;99.90
26505;DHT22;19493;48.042;7.584;2023-09-30T19:26:18;14.80;99.90
26505;DHT22;19493;48.042;7.584;2023-09-30T19:29:02;14.70;99.90
26505;DHT22;19493;48.042;7.584;2023-09-30T19:31:46;14.70;99.90
26505;DHT22;19493;48.042;7.584;2023-09-30T19:34:31;14.70;99.90
26505;DHT22;19493;48.042;7.584;2023-09-30T19:37:16;14.60;99.90
26505;DHT22;19493;48.042;7.584;2023-09-30T19:40:00;14.60;99.90
26505;DHT22;19493;48.042;7.584;2023-09-30T19:42:44;14.50;99.90
26505;DHT22;19493;48.042;7.584;2023-09-30T19:45:28;14.50;99.90
26505;DHT22;19493;48.042;7.584;2023-09-30T19:48:12;14.40;99.90
26505;DHT22;19493;48.042;7.584;2023-09-30T19:50:56;14.30;99.90
26505;DHT22;19493;48.042;7.584;2023-09-30T19:53:41;14.30;99.90
26505;DHT22;19493;48.042;7.584;2023-09-30T19:56:26;14.30;99.90
26505;DHT22;19493;48.042;7.584;2023-09-30T19:59:10;14.30;99.90
26505;DHT22;19493;48.042;7.584;2023-09-30T20:01:54;14.30;99.90
26505;DHT22;19493;48.042;7.584;2023-09-30T20:04:39;14.20;99.90
26505;DHT22;19493;48.042;7.584;2023-09-30T20:07:23;14.10;99.90
26505;DHT22;19493;48.042;7.584;2023-09-30T20:10:07;14.10;99.90
26505;DHT22;19493;48.042;7.584;2023-09-30T20:12:52;14.00;99.90
26505;DHT22;19493;48.042;7.584;2023-09-30T20:15:37;14.10;99.90
26505;DHT22;19493;48.042;7.584;2023-09-30T20:18:21;14.00;99.90
26505;DHT22;19493;48.042;7.584;2023-09-30T20:21:05;13.90;99.90